Latest Coastal Weather Observations for Cape Sorell

IDT60701

Issued at 10:55 pm EST Friday 25 July 2014 (issued every 10 minutes, with the page automatically refreshed every 10 minutes)

About coastal observations | Map of coastal stations | Coastal observations for TAS | Marine services | Other Formats
Station Details ID: 097000 Name: CAPE SORELL Lat: -42.20 Lon: 145.17 Height: 19.3 m
Data from the previous 72 hours. | See also: Recent months at Cape Sorell
Date/Time
EST
Temp

°C
Wind Pressure Rain
since 9am
mm
Weather Cloud Vis
km
Sea
Height
m
Swell
Dir
 
Speed
knots
Gust
knots
hPa Trend Height
m
Period
s
Dir
25/10:30pm 11.1 E 8 9 1017.4 - 0.2 - - - - - - -
25/10:00pm 10.4 E 9 10 1017.2 - 0.2 - - - - - - -
25/09:30pm 11.0 E 9 11 1017.2 - 0.2 - - - - - - -
25/09:00pm 11.3 ESE 9 10 1017.3 - 0.2 - - - - - - -
25/08:30pm 11.2 ESE 9 12 1017.1 - 0.2 - - - - - - -
25/08:00pm 11.5 SE 8 11 1017.2 - 0.2 - - - - - - -
25/07:30pm 12.0 ESE 9 11 1017.0 - 0.2 - - - - - - -
25/07:00pm 12.3 ESE 10 11 1016.5 - 0.2 - - - - - - -
25/06:30pm 11.8 ESE 9 11 1016.3 - 0.2 - - - - - - -
25/06:00pm 11.6 ESE 10 12 1015.8 - 0.2 - - - - - - -
25/05:30pm 11.3 ESE 9 11 1015.8 - 0.2 - - - - - - -
25/05:00pm 11.7 ESE 10 12 1015.5 - 0.2 - - - - - - -
25/04:30pm 12.1 ESE 9 12 1015.4 - 0.2 - - - - - - -
25/04:00pm 12.2 ESE 9 11 1015.4 - 0.2 - - - - - - -
25/03:30pm 12.6 ESE 8 11 1014.9 - 0.2 - - - - - - -
25/03:00pm 12.2 ESE 8 10 1014.9 - 0.2 Recent precip. - - - - - -
25/02:30pm 12.1 ESE 8 10 1014.7 - 0.2 - - - - - - -
25/02:00pm 12.8 ESE 7 11 1014.9 - 0.0 - - - - - - -
25/01:30pm 12.5 ESE 9 13 1014.7 - 0.0 - - - - - - -
25/01:00pm 11.5 ESE 9 11 1014.9 - 0.0 - - - - - - -
25/12:30pm 11.1 ESE 10 14 1015.1 - 0.0 - - - - - - -
25/12:00pm 11.3 ESE 10 13 1015.3 - 0.0 - - - - - - -
25/11:30am 11.3 ESE 9 13 1015.6 - 0.0 - - - - - - -
25/11:00am 10.5 ESE 11 14 1015.8 - 0.0 - - - - - - -
25/10:30am 10.6 ESE 9 11 1016.0 - 0.0 - - - - - - -
25/10:00am 10.1 ESE 8 10 1016.0 - 0.0 - - - - - - -
25/09:30am 10.1 E 8 9 1016.1 - 0.0 - - - - - - -
25/09:00am 10.6 E 7 9 1016.0 - 0.0 - - - - - - -
25/08:30am 10.5 E 8 10 1015.5 - 0.0 - - - - - - -
25/08:00am 10.1 E 10 13 1015.3 - 0.0 - - - - - - -
25/07:30am 9.9 E 10 12 1015.0 - 0.0 - - - - - - -
25/07:00am 9.8 E 11 14 1014.8 - 0.0 - - - - - - -
25/06:30am 10.0 E 12 14 1014.4 - 0.0 - - - - - - -
25/06:00am 9.8 E 12 15 1014.2 - 0.0 - - - - - - -
25/05:30am 10.1 E 12 14 1014.0 - 0.0 - - - - - - -
25/05:00am 10.3 E 11 13 1014.2 - 0.0 - - - - - - -
25/04:30am 10.2 E 12 14 1013.8 - 0.0 - - - - - - -
25/04:00am 9.8 E 10 13 1014.2 - 0.0 - - - - - - -
25/03:30am 9.7 E 12 14 1014.1 - 0.0 - - - - - - -
25/03:00am 9.5 E 12 14 1014.3 - 0.0 - - - - - - -
25/02:30am 9.2 E 12 14 1014.4 - 0.0 - - - - - - -
25/02:00am 9.5 E 11 13 1014.6 - 0.0 - - - - - - -
25/01:30am 9.3 E 11 14 1014.6 - 0.0 - - - - - - -
25/01:00am 9.3 E 12 15 1014.7 - 0.0 - - - - - - -
25/12:30am 9.4 E 12 15 1015.0 - 0.0 - - - - - - -
25/12:00am 9.2 ESE 12 17 1015.4 - 0.0 - - - - - - -
 
Date/Time
EST
Temp

°C
Wind Pressure Rain
since 9am
mm
Weather Cloud Vis
km
Sea
Height
m
Swell
Dir
 
Speed
knots
Gust
knots
hPa Trend Height
m
Period
s
Dir
24/11:30pm 9.2 ESE 13 16 1015.6 - 0.0 - - - - - - -
24/11:00pm 9.1 ESE 13 16 1015.7 - 0.0 - - - - - - -
24/10:30pm 9.1 ESE 13 15 1015.8 - 0.0 - - - - - - -
24/10:00pm 9.2 ESE 12 16 1015.9 - 0.0 - - - - - - -
24/09:30pm 9.0 ESE 11 14 1015.9 - 0.0 - - - - - - -
24/09:00pm 9.2 E 10 13 1015.9 - 0.0 - - - - - - -
24/08:30pm 9.7 E 10 12 1015.9 - 0.0 - - - - - - -
24/08:00pm 9.4 E 10 12 1015.8 - 0.0 - - - - - - -
24/07:30pm 9.5 E 10 12 1015.8 - 0.0 - - - - - - -
24/07:00pm 9.5 E 10 12 1015.8 - 0.0 - - - - - - -
24/06:30pm 9.8 E 11 13 1015.6 - 0.0 - - - - - - -
24/06:00pm 10.1 ESE 11 13 1015.6 - 0.0 - - - - - - -
24/05:30pm 10.1 ESE 11 15 1015.4 - 0.0 - - - - - - -
24/05:00pm 10.4 ESE 12 14 1015.5 - 0.0 - - - - - - -
24/04:30pm 10.7 ESE 11 14 1015.4 - 0.0 - - - - - - -
24/04:00pm 11.4 ESE 10 13 1015.5 - 0.0 - - - - - - -
24/03:30pm 11.4 ESE 10 13 1015.4 - 0.0 - - - - - - -
24/03:00pm 11.7 ESE 10 13 1015.5 - 0.0 - - - - - - -
24/02:30pm 11.0 ESE 10 12 1015.5 - 0.0 - - - - - - -
24/02:00pm 11.0 ESE 10 13 1015.6 - 0.0 - - - - - - -
24/01:30pm 10.1 ESE 11 14 1016.0 - 0.0 - - - - - - -
24/01:00pm 9.8 ESE 11 14 1016.4 - 0.0 - - - - - - -
24/12:30pm 9.7 E 10 14 1016.8 - 0.0 - - - - - - -
24/12:00pm 9.6 E 10 13 1017.2 - 0.0 - - - - - - -
24/11:30am 8.4 E 11 14 1017.7 - 0.0 - - - - - - -
24/11:00am 8.0 E 11 14 1018.0 - 0.0 - - - - - - -
24/10:30am 7.7 E 10 14 1018.2 - 0.0 - - - - - - -
24/10:00am 7.8 E 7 9 1018.5 - 0.0 - - - - - - -
24/09:30am 7.6 ESE 10 13 1018.7 - 0.0 - - - - - - -
24/09:00am 6.8 E 10 13 1018.8 - 0.2 - - - - - - -
24/08:30am 5.8 E 11 13 1018.7 - 0.2 - - - - - - -
24/08:00am 5.6 E 11 14 1018.4 - 0.2 - - - - - - -
24/07:30am 5.7 E 10 12 1018.3 - 0.2 - - - - - - -
24/07:00am 5.7 E 10 11 1018.3 - 0.2 - - - - - - -
24/06:30am 5.6 E 10 12 1018.3 - 0.2 - - - - - - -
24/06:00am 5.2 ENE 8 10 1018.2 - 0.2 - - - - - - -
24/05:30am 5.6 ENE 9 11 1018.1 - 0.2 - - - - - - -
24/05:00am 5.6 ENE 10 12 1018.0 - 0.2 - - - - - - -
24/04:30am 5.9 ENE 9 11 1018.2 - 0.2 - - - - - - -
24/04:00am 6.1 ENE 7 9 1018.4 - 0.2 - - - - - - -
24/03:30am 5.7 E 7 8 1018.4 - 0.2 - - - - - - -
24/03:00am 5.8 E 6 8 1018.5 - 0.2 - - - - - - -
24/02:30am 6.1 ENE 6 8 1018.6 - 0.2 - - - - - - -
24/02:00am 6.2 E 7 8 1018.6 - 0.2 - - - - - - -
24/01:30am 6.5 ENE 8 10 1018.6 - 0.2 - - - - - - -
24/01:00am 6.4 ENE 8 10 1018.8 - 0.2 - - - - - - -
24/12:30am 6.6 ENE 8 9 1019.0 - 0.2 - - - - - - -
24/12:00am 6.6 E 8 10 1019.2 - 0.2 - - - - - - -
 
Date/Time
EST
Temp

°C
Wind Pressure Rain
since 9am
mm
Weather Cloud Vis
km
Sea
Height
m
Swell
Dir
 
Speed
knots
Gust
knots
hPa Trend Height
m
Period
s
Dir
23/11:30pm 7.0 ENE 8 9 1019.5 - 0.2 - - - - - - -
23/11:00pm 6.9 ENE 8 9 1019.7 - 0.2 - - - - - - -
23/10:30pm 7.2 ENE 8 9 1019.9 - 0.2 - - - - - - -
23/10:00pm 7.4 E 8 9 1020.1 - 0.2 - - - - - - -
23/09:30pm 7.7 ENE 7 8 1020.3 - 0.2 - - - - - - -
23/09:00pm 8.1 ENE 6 7 1020.5 - 0.2 - - - - - - -
23/08:30pm 7.9 E 7 8 1020.5 - 0.2 - - - - - - -
23/08:00pm 8.1 S 2 3 1020.5 - 0.2 - - - - - - -
23/07:30pm 9.2 SW 1 3 1020.5 - 0.2 - - - - - - -
23/07:00pm 9.4 SW 3 3 1020.5 - 0.2 - - - - - - -
23/06:30pm 10.0 SW 2 2 1020.5 - 0.2 - - - - - - -
23/06:00pm 10.3 SW 2 2 1020.3 - 0.2 - - - - - - -
23/05:30pm 10.4 SW 2 2 1020.3 - 0.2 - - - - - - -
23/05:00pm 10.7 SSW 3 4 1020.4 - 0.2 - - - - - - -
23/04:30pm 11.5 S 4 5 1020.3 - 0.2 - - - - - - -
23/04:00pm 12.2 SSW 3 4 1020.3 - 0.2 - - - - - - -
23/03:30pm 12.5 SW 3 4 1020.6 - 0.2 - - - - - - -
23/03:00pm 13.0 WSW 3 4 1020.7 - 0.2 - - - - - - -
23/02:30pm 13.2 W 4 5 1020.7 - 0.2 - - - - - - -
23/02:00pm 14.6 NW 3 4 1020.8 - 0.2 - - - - - - -
23/01:30pm 13.8 N 2 3 1021.1 - 0.0 - - - - - - -
23/01:00pm 13.1 N 3 3 1021.3 - 0.0 - - - - - - -
23/12:30pm 12.4 NNE 5 6 1021.8 - 0.0 - - - - - - -
23/12:00pm 12.0 NNE 6 7 1022.3 - 0.0 - - - - - - -
23/11:30am 11.6 NE 7 9 1022.7 - 0.0 - - - - - - -
23/11:00am 11.2 NE 8 10 1023.2 - 0.0 - - - - - - -
23/10:30am 10.3 NE 8 10 1023.6 - 0.0 - - - - - - -
23/10:00am 9.7 NE 7 10 1023.7 - 0.0 - - - - - - -
23/09:30am 8.9 ENE 8 10 1023.7 - 0.0 - - - - - - -
23/09:00am 8.0 ENE 8 10 1023.7 - 0.0 - - - - - - -
23/08:30am 7.2 ENE 10 12 1023.4 - 0.0 - - - - - - -
23/08:00am 6.8 ENE 9 10 1023.5 - 0.0 - - - - - - -
23/07:30am 7.2 NE 8 10 1023.5 - 0.0 - - - - - - -
23/07:00am 6.8 ENE 8 9 1023.5 - 0.0 - - - - - - -
23/06:30am 7.2 ENE 9 10 1023.3 - 0.0 - - - - - - -
23/06:00am 7.8 NE 8 10 1023.3 - 0.0 - - - - - - -
23/05:30am 7.3 ENE 7 10 1023.3 - 0.0 - - - - - - -
23/05:00am 7.4 ENE 9 10 1023.3 - 0.0 - - - - - - -
23/04:30am 7.6 ENE 9 11 1023.5 - 0.0 - - - - - - -
23/04:00am 7.4 ENE 8 9 1023.6 - 0.0 - - - - - - -
23/03:30am 8.6 NE 7 8 1023.9 - 0.0 - - - - - - -
23/03:00am 8.3 NE 7 9 1024.0 - 0.0 - - - - - - -
23/02:30am 8.4 NE 6 8 1024.2 - 0.0 - - - - - - -
23/02:00am 7.8 ENE 7 8 1024.2 - 0.0 - - - - - - -
23/01:30am 8.0 ENE 8 9 1023.9 - 0.0 - - - - - - -
23/01:00am 8.0 ENE 8 9 1024.0 - 0.0 - - - - - - -
23/12:30am 8.2 ENE 8 9 1024.2 - 0.0 - - - - - - -
23/12:00am 8.5 ENE 7 8 1024.2 - 0.0 - - - - - - -
 
Date/Time
EST
Temp

°C
Wind Pressure Rain
since 9am
mm
Weather Cloud Vis
km
Sea
Height
m
Swell
Dir
 
Speed
knots
Gust
knots
hPa Trend Height
m
Period
s
Dir
22/11:30pm 9.7 NE 7 8 1024.3 - 0.0 - - - - - - -
22/11:00pm 10.5 NNE 7 9 1024.5 - 0.0 - - - - - - -

Other Formats:

Comma delimited format used in spreadsheet applications
http://www.bom.gov.au/fwo/IDT60701/IDT60701.94974.axf

JavaScript Object Notation format (JSON) in row-major order
http://www.bom.gov.au/fwo/IDT60701/IDT60701.94974.json